sensor_id;sensor_type;location;lat;lon;timestamp;pressure;altitude;pressure_sealevel;temperature
69857;BMP280;57147;53.582;10.112;2023-10-31T00:03:19;98889.16;;;11.68
69857;BMP280;57147;53.582;10.112;2023-10-31T00:08:22;98895.25;;;11.69
69857;BMP280;57147;53.582;10.112;2023-10-31T00:13:23;98880.41;;;11.68
69857;BMP280;57147;53.582;10.112;2023-10-31T00:18:24;98901.00;;;11.71
69857;BMP280;57147;53.582;10.112;2023-10-31T00:23:27;98913.50;;;11.70
69857;BMP280;57147;53.582;10.112;2023-10-31T00:28:27;98896.34;;;11.68
69857;BMP280;57147;53.582;10.112;2023-10-31T00:33:28;98878.09;;;11.66
69857;BMP280;57147;53.582;10.112;2023-10-31T00:38:32;98879.63;;;11.67
69857;BMP280;57147;53.582;10.112;2023-10-31T00:43:32;98864.44;;;11.68
69857;BMP280;57147;53.582;10.112;2023-10-31T00:48:33;98857.69;;;11.70
69857;BMP280;57147;53.582;10.112;2023-10-31T00:53:36;98860.00;;;11.72
69857;BMP280;57147;53.582;10.112;2023-10-31T00:58:37;98840.63;;;11.71
69857;BMP280;57147;53.582;10.112;2023-10-31T01:03:37;98825.53;;;11.75
69857;BMP280;57147;53.582;10.112;2023-10-31T01:08:40;98818.34;;;11.76
69857;BMP280;57147;53.582;10.112;2023-10-31T01:13:41;98833.56;;;11.79
69857;BMP280;57147;53.582;10.112;2023-10-31T01:18:42;98803.16;;;11.76
69857;BMP280;57147;53.582;10.112;2023-10-31T01:23:45;98797.06;;;11.76
69857;BMP280;57147;53.582;10.112;2023-10-31T01:28:45;98796.28;;;11.75
69857;BMP280;57147;53.582;10.112;2023-10-31T01:33:46;98772.03;;;11.77
69857;BMP280;57147;53.582;10.112;2023-10-31T01:38:49;98821.00;;;11.76
69857;BMP280;57147;53.582;10.112;2023-10-31T01:43:50;98828.97;;;11.76
69857;BMP280;57147;53.582;10.112;2023-10-31T01:48:50;98808.41;;;11.73
69857;BMP280;57147;53.582;10.112;2023-10-31T01:53:53;98805.38;;;11.74
69857;BMP280;57147;53.582;10.112;2023-10-31T01:58:54;98793.56;;;11.72
69857;BMP280;57147;53.582;10.112;2023-10-31T02:03:55;98787.13;;;11.73
69857;BMP280;57147;53.582;10.112;2023-10-31T02:08:58;98766.56;;;11.70
69857;BMP280;57147;53.582;10.112;2023-10-31T02:13:59;98774.97;;;11.72
69857;BMP280;57147;53.582;10.112;2023-10-31T02:18:59;98754.81;;;11.71
69857;BMP280;57147;53.582;10.112;2023-10-31T02:24:03;98714.19;;;11.54
69857;BMP280;57147;53.582;10.112;2023-10-31T02:29:04;98736.88;;;11.68
69857;BMP280;57147;53.582;10.112;2023-10-31T02:34:05;98705.75;;;11.68
69857;BMP280;57147;53.582;10.112;2023-10-31T02:39:08;98693.19;;;11.65
69857;BMP280;57147;53.582;10.112;2023-10-31T02:44:09;98692.84;;;11.67
69857;BMP280;57147;53.582;10.112;2023-10-31T02:49:09;98686.03;;;11.69
69857;BMP280;57147;53.582;10.112;2023-10-31T02:54:13;98676.97;;;11.70
69857;BMP280;57147;53.582;10.112;2023-10-31T02:59:13;98696.34;;;11.71
69857;BMP280;57147;53.582;10.112;2023-10-31T03:04:17;98679.94;;;11.69
69857;BMP280;57147;53.582;10.112;2023-10-31T03:09:20;98622.56;;;11.48
69857;BMP280;57147;53.582;10.112;2023-10-31T03:14:21;98658.69;;;11.69
69857;BMP280;57147;53.582;10.112;2023-10-31T03:19:21;98683.72;;;11.68
69857;BMP280;57147;53.582;10.112;2023-10-31T03:24:25;98630.88;;;11.47
69857;BMP280;57147;53.582;10.112;2023-10-31T03:29:25;98625.25;;;11.68
69857;BMP280;57147;53.582;10.112;2023-10-31T03:34:26;98640.53;;;11.71
69857;BMP280;57147;53.582;10.112;2023-10-31T03:39:29;98648.94;;;11.73
69857;BMP280;57147;53.582;10.112;2023-10-31T03:44:30;98651.84;;;11.68
69857;BMP280;57147;53.582;10.112;2023-10-31T03:49:30;98585.00;;;11.66
69857;BMP280;57147;53.582;10.112;2023-10-31T03:54:33;98597.56;;;11.69
69857;BMP280;57147;53.582;10.112;2023-10-31T03:59:36;98600.94;;;11.66
69857;BMP280;57147;53.582;10.112;2023-10-31T04:04:37;98572.09;;;11.68
69857;BMP280;57147;53.582;10.112;2023-10-31T04:09:40;98561.47;;;11.68
69857;BMP280;57147;53.582;10.112;2023-10-31T04:14:41;98541.63;;;11.62
69857;BMP280;57147;53.582;10.112;2023-10-31T04:19:41;98549.38;;;11.70
69857;BMP280;57147;53.582;10.112;2023-10-31T04:24:44;98523.44;;;11.64
69857;BMP280;57147;53.582;10.112;2023-10-31T04:29:45;98507.63;;;11.71
69857;BMP280;57147;53.582;10.112;2023-10-31T04:34:46;98493.22;;;11.72
69857;BMP280;57147;53.582;10.112;2023-10-31T04:39:49;98499.38;;;11.76
69857;BMP280;57147;53.582;10.112;2023-10-31T04:44:50;98499.44;;;11.79
69857;BMP280;57147;53.582;10.112;2023-10-31T04:49:51;98478.94;;;11.80
69857;BMP280;57147;53.582;10.112;2023-10-31T04:54:54;98462.69;;;11.85
69857;BMP280;57147;53.582;10.112;2023-10-31T04:59:54;98450.94;;;11.86
69857;BMP280;57147;53.582;10.112;2023-10-31T05:04:55;98459.31;;;11.88
69857;BMP280;57147;53.582;10.112;2023-10-31T05:09:58;98442.66;;;11.91
69857;BMP280;57147;53.582;10.112;2023-10-31T05:14:59;98413.84;;;11.93
69857;BMP280;57147;53.582;10.112;2023-10-31T05:19:59;98440.47;;;11.97
69857;BMP280;57147;53.582;10.112;2023-10-31T05:25:03;98437.47;;;11.98
69857;BMP280;57147;53.582;10.112;2023-10-31T05:30:05;98460.28;;;11.99
69857;BMP280;57147;53.582;10.112;2023-10-31T05:35:06;98455.59;;;11.92
69857;BMP280;57147;53.582;10.112;2023-10-31T05:40:10;98461.78;;;12.00
69857;BMP280;57147;53.582;10.112;2023-10-31T05:45:11;98454.19;;;11.99
69857;BMP280;57147;53.582;10.112;2023-10-31T05:50:11;98463.31;;;12.01
69857;BMP280;57147;53.582;10.112;2023-10-31T05:55:14;98410.41;;;11.70
69857;BMP280;57147;53.582;10.112;2023-10-31T06:00:16;98441.25;;;11.97
69857;BMP280;57147;53.582;10.112;2023-10-31T06:05:16;98422.81;;;11.85
69857;BMP280;57147;53.582;10.112;2023-10-31T06:10:20;98419.25;;;12.00
69857;BMP280;57147;53.582;10.112;2023-10-31T06:15:20;98416.19;;;11.98
69857;BMP280;57147;53.582;10.112;2023-10-31T06:20:21;98411.38;;;12.07
69857;BMP280;57147;53.582;10.112;2023-10-31T06:25:24;98420.50;;;12.06
69857;BMP280;57147;53.582;10.112;2023-10-31T06:30:24;98389.59;;;11.98
69857;BMP280;57147;53.582;10.112;2023-10-31T06:35:25;98378.34;;;12.08
69857;BMP280;57147;53.582;10.112;2023-10-31T06:40:28;98367.72;;;12.08
69857;BMP280;57147;53.582;10.112;2023-10-31T06:45:29;98373.88;;;12.12
69857;BMP280;57147;53.582;10.112;2023-10-31T06:50:30;98373.16;;;12.15
69857;BMP280;57147;53.582;10.112;2023-10-31T06:55:33;98360.28;;;12.17
69857;BMP280;57147;53.582;10.112;2023-10-31T07:00:35;98358.00;;;12.19
69857;BMP280;57147;53.582;10.112;2023-10-31T07:05:36;98369.06;;;12.21
69857;BMP280;57147;53.582;10.112;2023-10-31T07:10:39;98380.81;;;12.20
69857;BMP280;57147;53.582;10.112;2023-10-31T07:15:39;98401.31;;;12.20
69857;BMP280;57147;53.582;10.112;2023-10-31T07:20:40;98437.16;;;12.03
69857;BMP280;57147;53.582;10.112;2023-10-31T07:25:43;98415.34;;;11.94
69857;BMP280;57147;53.582;10.112;2023-10-31T07:30:44;98390.06;;;11.81
69857;BMP280;57147;53.582;10.112;2023-10-31T07:35:45;98382.09;;;11.77
69857;BMP280;57147;53.582;10.112;2023-10-31T07:40:48;98412.66;;;11.68
69857;BMP280;57147;53.582;10.112;2023-10-31T07:45:48;98455.91;;;11.65
69857;BMP280;57147;53.582;10.112;2023-10-31T07:50:49;98512.00;;;11.60
69857;BMP280;57147;53.582;10.112;2023-10-31T07:55:52;98469.03;;;11.58
69857;BMP280;57147;53.582;10.112;2023-10-31T08:00:53;98543.66;;;11.14
69857;BMP280;57147;53.582;10.112;2023-10-31T08:05:53;98571.47;;;11.20
69857;BMP280;57147;53.582;10.112;2023-10-31T08:10:56;98578.03;;;11.07
69857;BMP280;57147;53.582;10.112;2023-10-31T08:15:57;98606.38;;;11.03
69857;BMP280;57147;53.582;10.112;2023-10-31T08:20:58;98578.00;;;10.88
69857;BMP280;57147;53.582;10.112;2023-10-31T08:26:01;98634.31;;;10.97
69857;BMP280;57147;53.582;10.112;2023-10-31T08:31:01;98659.00;;;10.82
69857;BMP280;57147;53.582;10.112;2023-10-31T08:36:03;98652.72;;;10.74
69857;BMP280;57147;53.582;10.112;2023-10-31T08:41:06;98611.53;;;10.64
69857;BMP280;57147;53.582;10.112;2023-10-31T08:46:07;98605.88;;;10.50
69857;BMP280;57147;53.582;10.112;2023-10-31T08:51:07;98587.03;;;10.55
69857;BMP280;57147;53.582;10.112;2023-10-31T08:56:11;98576.63;;;10.62
69857;BMP280;57147;53.582;10.112;2023-10-31T09:01:11;98539.38;;;10.43
69857;BMP280;57147;53.582;10.112;2023-10-31T09:06:12;98581.16;;;10.62
69857;BMP280;57147;53.582;10.112;2023-10-31T09:11:15;98598.88;;;10.73
69857;BMP280;57147;53.582;10.112;2023-10-31T09:16:16;98587.44;;;10.69
69857;BMP280;57147;53.582;10.112;2023-10-31T09:21:16;98583.63;;;10.70
69857;BMP280;57147;53.582;10.112;2023-10-31T09:26:19;98568.75;;;10.82
69857;BMP280;57147;53.582;10.112;2023-10-31T09:31:20;98575.13;;;10.96
69857;BMP280;57147;53.582;10.112;2023-10-31T09:36:21;98602.16;;;10.83
69857;BMP280;57147;53.582;10.112;2023-10-31T09:41:24;98533.41;;;10.62
69857;BMP280;57147;53.582;10.112;2023-10-31T09:46:25;98421.16;;;10.26
69857;BMP280;57147;53.582;10.112;2023-10-31T09:51:25;98406.66;;;10.05
69857;BMP280;57147;53.582;10.112;2023-10-31T09:56:29;98405.69;;;9.81
69857;BMP280;57147;53.582;10.112;2023-10-31T10:01:30;98467.06;;;9.55
69857;BMP280;57147;53.582;10.112;2023-10-31T10:06:31;98469.88;;;9.47
69857;BMP280;57147;53.582;10.112;2023-10-31T10:11:34;98468.34;;;9.34
69857;BMP280;57147;53.582;10.112;2023-10-31T10:16:35;98483.03;;;9.31
69857;BMP280;57147;53.582;10.112;2023-10-31T10:21:46;98460.88;;;9.24
69857;BMP280;57147;53.582;10.112;2023-10-31T10:26:50;98484.00;;;9.11
69857;BMP280;57147;53.582;10.112;2023-10-31T10:31:50;98482.03;;;8.96
69857;BMP280;57147;53.582;10.112;2023-10-31T10:36:53;98560.09;;;9.02
69857;BMP280;57147;53.582;10.112;2023-10-31T10:41:56;98575.09;;;8.98
69857;BMP280;57147;53.582;10.112;2023-10-31T10:46:56;98641.56;;;8.96
69857;BMP280;57147;53.582;10.112;2023-10-31T10:51:59;98678.63;;;8.96
69857;BMP280;57147;53.582;10.112;2023-10-31T10:57:12;98708.81;;;8.95
69857;BMP280;57147;53.582;10.112;2023-10-31T11:02:14;98701.56;;;9.04
69857;BMP280;57147;53.582;10.112;2023-10-31T11:07:16;98750.91;;;8.88
69857;BMP280;57147;53.582;10.112;2023-10-31T11:12:20;98755.13;;;9.01
69857;BMP280;57147;53.582;10.112;2023-10-31T11:17:24;98776.31;;;9.01
69857;BMP280;57147;53.582;10.112;2023-10-31T11:22:25;98819.28;;;8.98
69857;BMP280;57147;53.582;10.112;2023-10-31T11:27:28;98799.03;;;9.02
69857;BMP280;57147;53.582;10.112;2023-10-31T11:32:31;98816.72;;;8.90
69857;BMP280;57147;53.582;10.112;2023-10-31T11:37:33;98780.81;;;9.01
69857;BMP280;57147;53.582;10.112;2023-10-31T11:42:36;98808.56;;;9.15
69857;BMP280;57147;53.582;10.112;2023-10-31T11:47:46;98838.91;;;9.18
69857;BMP280;57147;53.582;10.112;2023-10-31T11:53:01;98815.09;;;9.30
69857;BMP280;57147;53.582;10.112;2023-10-31T11:58:25;98796.53;;;9.63
69857;BMP280;57147;53.582;10.112;2023-10-31T12:03:26;98827.88;;;9.73
69857;BMP280;57147;53.582;10.112;2023-10-31T12:08:29;98936.31;;;9.78
69857;BMP280;57147;53.582;10.112;2023-10-31T12:13:33;99066.75;;;9.63
69857;BMP280;57147;53.582;10.112;2023-10-31T12:18:34;98974.19;;;9.58
69857;BMP280;57147;53.582;10.112;2023-10-31T12:23:35;99029.63;;;9.84
69857;BMP280;57147;53.582;10.112;2023-10-31T12:28:38;99096.13;;;9.91
69857;BMP280;57147;53.582;10.112;2023-10-31T12:33:39;99037.75;;;10.12
69857;BMP280;57147;53.582;10.112;2023-10-31T12:38:40;99095.69;;;10.22
69857;BMP280;57147;53.582;10.112;2023-10-31T12:43:43;99287.97;;;10.07
69857;BMP280;57147;53.582;10.112;2023-10-31T12:48:47;99285.63;;;10.06
69857;BMP280;57147;53.582;10.112;2023-10-31T12:53:48;99317.53;;;10.18
69857;BMP280;57147;53.582;10.112;2023-10-31T12:58:56;99362.72;;;10.30
69857;BMP280;57147;53.582;10.112;2023-10-31T13:03:57;99377.34;;;10.36
69857;BMP280;57147;53.582;10.112;2023-10-31T13:08:58;99462.69;;;10.38
69857;BMP280;57147;53.582;10.112;2023-10-31T13:14:01;99463.19;;;10.31
69857;BMP280;57147;53.582;10.112;2023-10-31T13:19:02;99434.59;;;10.37
69857;BMP280;57147;53.582;10.112;2023-10-31T13:24:03;99426.72;;;10.49
69857;BMP280;57147;53.582;10.112;2023-10-31T13:29:06;99469.03;;;10.54
69857;BMP280;57147;53.582;10.112;2023-10-31T13:34:06;99474.22;;;10.71
69857;BMP280;57147;53.582;10.112;2023-10-31T13:39:07;99515.19;;;10.62
69857;BMP280;57147;53.582;10.112;2023-10-31T13:44:10;99485.31;;;10.36
69857;BMP280;57147;53.582;10.112;2023-10-31T13:49:11;99436.84;;;10.18
69857;BMP280;57147;53.582;10.112;2023-10-31T13:54:12;99386.31;;;9.85
69857;BMP280;57147;53.582;10.112;2023-10-31T13:59:15;99436.72;;;9.42
69857;BMP280;57147;53.582;10.112;2023-10-31T14:04:16;99456.22;;;9.11
69857;BMP280;57147;53.582;10.112;2023-10-31T14:09:17;99452.28;;;8.83
69857;BMP280;57147;53.582;10.112;2023-10-31T14:14:20;99483.09;;;8.79
69857;BMP280;57147;53.582;10.112;2023-10-31T14:19:21;99506.22;;;8.65
69857;BMP280;57147;53.582;10.112;2023-10-31T14:24:22;99557.88;;;8.31
69857;BMP280;57147;53.582;10.112;2023-10-31T14:29:25;99555.84;;;8.06
69857;BMP280;57147;53.582;10.112;2023-10-31T14:34:26;99543.72;;;8.05
69857;BMP280;57147;53.582;10.112;2023-10-31T14:39:26;99619.94;;;7.76
69857;BMP280;57147;53.582;10.112;2023-10-31T14:44:30;99628.91;;;7.39
69857;BMP280;57147;53.582;10.112;2023-10-31T14:49:30;99624.66;;;7.24
69857;BMP280;57147;53.582;10.112;2023-10-31T14:54:31;99688.78;;;7.11
69857;BMP280;57147;53.582;10.112;2023-10-31T14:59:34;99720.41;;;6.97
69857;BMP280;57147;53.582;10.112;2023-10-31T15:04:35;99769.66;;;7.02
69857;BMP280;57147;53.582;10.112;2023-10-31T15:09:35;99776.50;;;7.03
69857;BMP280;57147;53.582;10.112;2023-10-31T15:14:39;99797.34;;;6.85
69857;BMP280;57147;53.582;10.112;2023-10-31T15:19:39;99796.34;;;6.44
69857;BMP280;57147;53.582;10.112;2023-10-31T15:24:40;99834.16;;;6.34
69857;BMP280;57147;53.582;10.112;2023-10-31T15:29:44;99828.53;;;6.41
69857;BMP280;57147;53.582;10.112;2023-10-31T15:34:44;99845.81;;;6.28
69857;BMP280;57147;53.582;10.112;2023-10-31T15:39:46;99871.25;;;6.14
69857;BMP280;57147;53.582;10.112;2023-10-31T15:44:49;99891.13;;;6.01
69857;BMP280;57147;53.582;10.112;2023-10-31T15:49:49;99896.28;;;5.88
69857;BMP280;57147;53.582;10.112;2023-10-31T15:54:50;99900.81;;;5.77
69857;BMP280;57147;53.582;10.112;2023-10-31T15:59:53;99915.66;;;5.68
69857;BMP280;57147;53.582;10.112;2023-10-31T16:04:54;99915.25;;;5.51
69857;BMP280;57147;53.582;10.112;2023-10-31T16:09:54;99936.72;;;5.68
69857;BMP280;57147;53.582;10.112;2023-10-31T16:14:58;99920.09;;;5.33
69857;BMP280;57147;53.582;10.112;2023-10-31T16:19:58;99949.50;;;5.46
69857;BMP280;57147;53.582;10.112;2023-10-31T16:24:59;99972.69;;;5.44
69857;BMP280;57147;53.582;10.112;2023-10-31T16:30:03;99986.31;;;5.56
69857;BMP280;57147;53.582;10.112;2023-10-31T16:35:04;99994.19;;;5.61
69857;BMP280;57147;53.582;10.112;2023-10-31T16:40:07;99999.84;;;5.78
69857;BMP280;57147;53.582;10.112;2023-10-31T16:45:10;100018.84;;;5.75
69857;BMP280;57147;53.582;10.112;2023-10-31T16:50:11;100032.66;;;5.52
69857;BMP280;57147;53.582;10.112;2023-10-31T16:55:12;100032.38;;;5.58
69857;BMP280;57147;53.582;10.112;2023-10-31T17:00:16;100037.84;;;5.72
69857;BMP280;57147;53.582;10.112;2023-10-31T17:05:17;100048.31;;;5.77
69857;BMP280;57147;53.582;10.112;2023-10-31T17:10:17;100042.47;;;5.85
69857;BMP280;57147;53.582;10.112;2023-10-31T17:15:21;100051.91;;;5.96
69857;BMP280;57147;53.582;10.112;2023-10-31T17:20:21;100062.47;;;5.91
69857;BMP280;57147;53.582;10.112;2023-10-31T17:25:22;100083.31;;;5.88
69857;BMP280;57147;53.582;10.112;2023-10-31T17:30:25;100078.84;;;5.78
69857;BMP280;57147;53.582;10.112;2023-10-31T17:35:26;100103.09;;;5.80
69857;BMP280;57147;53.582;10.112;2023-10-31T17:40:27;100113.88;;;5.79
69857;BMP280;57147;53.582;10.112;2023-10-31T17:45:30;100108.38;;;5.75
69857;BMP280;57147;53.582;10.112;2023-10-31T17:50:30;100133.13;;;5.79
69857;BMP280;57147;53.582;10.112;2023-10-31T17:55:31;100136.84;;;5.73
69857;BMP280;57147;53.582;10.112;2023-10-31T18:00:34;100153.41;;;5.79
69857;BMP280;57147;53.582;10.112;2023-10-31T18:05:35;100120.06;;;5.54
69857;BMP280;57147;53.582;10.112;2023-10-31T18:10:35;100162.41;;;5.72
69857;BMP280;57147;53.582;10.112;2023-10-31T18:15:39;100166.03;;;5.76
69857;BMP280;57147;53.582;10.112;2023-10-31T18:20:39;100173.44;;;5.74
69857;BMP280;57147;53.582;10.112;2023-10-31T18:25:40;100168.47;;;5.68
69857;BMP280;57147;53.582;10.112;2023-10-31T18:30:43;100181.59;;;5.73
69857;BMP280;57147;53.582;10.112;2023-10-31T18:35:44;100183.75;;;5.71
69857;BMP280;57147;53.582;10.112;2023-10-31T18:40:44;100208.44;;;5.80
69857;BMP280;57147;53.582;10.112;2023-10-31T18:45:48;100214.81;;;5.69
69857;BMP280;57147;53.582;10.112;2023-10-31T18:50:48;100222.19;;;5.72
69857;BMP280;57147;53.582;10.112;2023-10-31T18:55:50;100209.06;;;5.57
69857;BMP280;57147;53.582;10.112;2023-10-31T19:00:54;100231.19;;;5.61
69857;BMP280;57147;53.582;10.112;2023-10-31T19:05:54;100215.94;;;5.48
69857;BMP280;57147;53.582;10.112;2023-10-31T19:10:55;100226.97;;;5.60
69857;BMP280;57147;53.582;10.112;2023-10-31T19:15:58;100231.19;;;5.61
69857;BMP280;57147;53.582;10.112;2023-10-31T19:20:59;100227.50;;;5.62
69857;BMP280;57147;53.582;10.112;2023-10-31T19:26:00;100226.97;;;5.55
69857;BMP280;57147;53.582;10.112;2023-10-31T19:31:06;100213.81;;;5.39
69857;BMP280;57147;53.582;10.112;2023-10-31T19:36:07;100231.69;;;5.58
69857;BMP280;57147;53.582;10.112;2023-10-31T19:41:08;100214.88;;;5.49
69857;BMP280;57147;53.582;10.112;2023-10-31T19:46:11;100224.88;;;5.47
69857;BMP280;57147;53.582;10.112;2023-10-31T19:51:12;100245.91;;;5.57
69857;BMP280;57147;53.582;10.112;2023-10-31T19:56:16;100226.97;;;5.39
69857;BMP280;57147;53.582;10.112;2023-10-31T20:01:19;100264.34;;;5.52
69857;BMP280;57147;53.582;10.112;2023-10-31T20:06:19;100263.84;;;5.45
69857;BMP280;57147;53.582;10.112;2023-10-31T20:11:20;100278.03;;;5.44
69857;BMP280;57147;53.582;10.112;2023-10-31T20:16:23;100279.63;;;5.39
69857;BMP280;57147;53.582;10.112;2023-10-31T20:21:24;100291.47;;;5.32
69857;BMP280;57147;53.582;10.112;2023-10-31T20:26:25;100287.00;;;5.32
69857;BMP280;57147;53.582;10.112;2023-10-31T20:31:28;100283.84;;;5.35
69857;BMP280;57147;53.582;10.112;2023-10-31T20:36:28;100290.41;;;5.38
69857;BMP280;57147;53.582;10.112;2023-10-31T20:41:29;100249.09;;;5.18
69857;BMP280;57147;53.582;10.112;2023-10-31T20:46:32;100285.44;;;5.47
69857;BMP280;57147;53.582;10.112;2023-10-31T20:51:33;100281.22;;;5.46
69857;BMP280;57147;53.582;10.112;2023-10-31T20:56:34;100290.69;;;5.47
69857;BMP280;57147;53.582;10.112;2023-10-31T21:01:37;100282.78;;;5.36
69857;BMP280;57147;53.582;10.112;2023-10-31T21:06:38;100293.84;;;5.33
69857;BMP280;57147;53.582;10.112;2023-10-31T21:11:38;100289.09;;;5.41
69857;BMP280;57147;53.582;10.112;2023-10-31T21:16:41;100285.69;;;5.35
69857;BMP280;57147;53.582;10.112;2023-10-31T21:21:42;100274.34;;;5.19
69857;BMP280;57147;53.582;10.112;2023-10-31T21:26:43;100283.31;;;5.23
69857;BMP280;57147;53.582;10.112;2023-10-31T21:31:46;100286.72;;;5.29
69857;BMP280;57147;53.582;10.112;2023-10-31T21:36:47;100281.72;;;5.22
69857;BMP280;57147;53.582;10.112;2023-10-31T21:41:47;100281.19;;;5.25
69857;BMP280;57147;53.582;10.112;2023-10-31T21:46:51;100277.50;;;5.26
69857;BMP280;57147;53.582;10.112;2023-10-31T21:51:52;100283.31;;;5.23
69857;BMP280;57147;53.582;10.112;2023-10-31T21:56:53;100290.16;;;5.24
69857;BMP280;57147;53.582;10.112;2023-10-31T22:01:56;100266.97;;;5.16
69857;BMP280;57147;53.582;10.112;2023-10-31T22:06:57;100287.25;;;5.26
69857;BMP280;57147;53.582;10.112;2023-10-31T22:11:57;100303.31;;;5.39
69857;BMP280;57147;53.582;10.112;2023-10-31T22:17:01;100301.22;;;5.42
69857;BMP280;57147;53.582;10.112;2023-10-31T22:22:01;100287.53;;;5.50
69857;BMP280;57147;53.582;10.112;2023-10-31T22:27:02;100280.94;;;5.62
69857;BMP280;57147;53.582;10.112;2023-10-31T22:32:06;100287.00;;;5.63
69857;BMP280;57147;53.582;10.112;2023-10-31T22:37:06;100287.50;;;5.65
69857;BMP280;57147;53.582;10.112;2023-10-31T22:42:07;100286.97;;;5.73
69857;BMP280;57147;53.582;10.112;2023-10-31T22:47:10;100292.47;;;5.76
69857;BMP280;57147;53.582;10.112;2023-10-31T22:52:11;100269.88;;;5.65
69857;BMP280;57147;53.582;10.112;2023-10-31T22:57:12;100284.84;;;5.75
69857;BMP280;57147;53.582;10.112;2023-10-31T23:02:15;100262.78;;;5.61
69857;BMP280;57147;53.582;10.112;2023-10-31T23:07:16;100294.59;;;5.85
69857;BMP280;57147;53.582;10.112;2023-10-31T23:12:16;100288.53;;;5.84
69857;BMP280;57147;53.582;10.112;2023-10-31T23:17:20;100294.84;;;5.88
69857;BMP280;57147;53.582;10.112;2023-10-31T23:22:20;100285.06;;;5.99
69857;BMP280;57147;53.582;10.112;2023-10-31T23:27:21;100256.66;;;5.81
69857;BMP280;57147;53.582;10.112;2023-10-31T23:32:24;100284.78;;;6.05
69857;BMP280;57147;53.582;10.112;2023-10-31T23:37:24;100293.22;;;6.07
69857;BMP280;57147;53.582;10.112;2023-10-31T23:42:25;100288.75;;;6.08
69857;BMP280;57147;53.582;10.112;2023-10-31T23:47:28;100291.09;;;6.09
69857;BMP280;57147;53.582;10.112;2023-10-31T23:52:29;100284.50;;;6.12
69857;BMP280;57147;53.582;10.112;2023-10-31T23:57:29;100289.50;;;6.24
